createdAt,value
2018-09-20T00:01:25.835Z,16.40
2018-09-20T00:04:00.305Z,16.40
2018-09-20T00:06:35.222Z,16.40
2018-09-20T00:09:10.289Z,16.30
2018-09-20T00:11:45.065Z,16.30
2018-09-20T00:14:19.385Z,16.30
2018-09-20T00:16:54.505Z,16.20
2018-09-20T00:19:28.921Z,16.20
2018-09-20T00:22:03.889Z,16.20
2018-09-20T00:24:38.472Z,16.20
2018-09-20T00:27:13.472Z,16.20
2018-09-20T00:29:47.948Z,16.10
2018-09-20T00:32:22.782Z,16.10
2018-09-20T00:34:57.642Z,16.10
2018-09-20T00:37:32.635Z,16.00
2018-09-20T00:40:07.809Z,16.00
2018-09-20T00:42:42.862Z,16.00
2018-09-20T00:45:17.070Z,15.90
2018-09-20T00:47:51.969Z,15.90
2018-09-20T00:50:26.661Z,15.90
2018-09-20T00:53:01.607Z,15.90
2018-09-20T00:55:36.067Z,15.80
2018-09-20T00:58:10.986Z,15.80
2018-09-20T01:00:45.720Z,15.80
2018-09-20T01:03:20.338Z,15.70
2018-09-20T01:05:55.032Z,15.70
2018-09-20T01:08:29.749Z,15.70
2018-09-20T01:11:04.537Z,15.70
2018-09-20T01:13:39.366Z,15.70
2018-09-20T01:16:14.006Z,15.60
2018-09-20T01:18:48.932Z,15.60
2018-09-20T01:21:24.225Z,15.60
2018-09-20T01:23:58.993Z,15.50
2018-09-20T01:26:34.514Z,15.50
2018-09-20T01:29:10.099Z,15.50
2018-09-20T01:31:45.344Z,15.50
2018-09-20T01:34:20.186Z,15.50
2018-09-20T01:36:55.231Z,15.40
2018-09-20T01:39:29.761Z,15.40
2018-09-20T01:42:04.341Z,15.40
2018-09-20T01:44:39.466Z,15.40
2018-09-20T01:47:14.278Z,15.40
2018-09-20T01:49:48.580Z,15.40
2018-09-20T01:52:23.405Z,15.30
2018-09-20T01:54:57.480Z,15.30
2018-09-20T01:57:32.910Z,15.30
2018-09-20T02:00:07.784Z,15.30
2018-09-20T02:02:42.759Z,15.30
2018-09-20T02:05:17.445Z,15.20
2018-09-20T02:07:52.336Z,15.30
2018-09-20T02:10:26.764Z,15.20
2018-09-20T02:13:01.158Z,15.20
2018-09-20T02:15:35.881Z,15.20
2018-09-20T02:18:10.684Z,15.20
2018-09-20T02:20:46.294Z,15.20
2018-09-20T02:23:20.883Z,15.20
2018-09-20T02:25:55.930Z,15.10
2018-09-20T02:28:30.832Z,15.10
2018-09-20T02:31:05.472Z,15.10
2018-09-20T02:33:40.085Z,15.10
2018-09-20T02:36:14.749Z,15.10
2018-09-20T02:38:49.757Z,15.10
2018-09-20T02:41:24.352Z,15.10
2018-09-20T02:43:58.977Z,15.10
2018-09-20T02:46:33.953Z,15.00
2018-09-20T02:49:08.445Z,15.00
2018-09-20T02:51:43.158Z,15.10
2018-09-20T02:54:17.938Z,15.10
2018-09-20T02:56:52.711Z,15.00
2018-09-20T02:59:27.429Z,15.00
2018-09-20T03:02:02.384Z,15.00
2018-09-20T03:04:37.326Z,14.90
2018-09-20T03:07:12.106Z,15.00
2018-09-20T03:09:46.869Z,15.00
2018-09-20T03:12:21.589Z,14.90
2018-09-20T03:14:56.245Z,14.90
2018-09-20T03:17:30.750Z,14.90
2018-09-20T03:20:05.904Z,14.90
2018-09-20T03:22:40.316Z,14.90
2018-09-20T03:25:14.913Z,14.90
2018-09-20T03:27:49.596Z,14.90
2018-09-20T03:30:24.691Z,14.80
2018-09-20T03:32:58.999Z,14.80
2018-09-20T03:35:34.510Z,14.80
2018-09-20T03:38:09.378Z,14.70
2018-09-20T03:40:44.188Z,14.70
2018-09-20T03:43:19.161Z,14.70
2018-09-20T03:45:54.229Z,14.70
2018-09-20T03:48:28.342Z,14.70
2018-09-20T03:51:03.261Z,14.70
2018-09-20T03:53:38.588Z,14.70
2018-09-20T03:56:14.017Z,14.70
2018-09-20T03:58:49.088Z,14.60
2018-09-20T04:01:24.311Z,14.60
2018-09-20T04:03:58.666Z,14.60
2018-09-20T04:06:33.351Z,14.60
2018-09-20T04:09:09.901Z,14.50
2018-09-20T04:11:44.651Z,14.50
2018-09-20T04:14:18.963Z,14.50
2018-09-20T04:16:54.308Z,14.50
2018-09-20T04:19:28.529Z,14.50
2018-09-20T04:22:03.189Z,14.50
2018-09-20T04:24:38.029Z,14.40
2018-09-20T04:27:12.716Z,14.40
2018-09-20T04:29:47.388Z,14.40
2018-09-20T04:32:21.993Z,14.40
2018-09-20T04:34:56.819Z,14.40
2018-09-20T04:37:31.327Z,14.40
2018-09-20T04:40:06.020Z,14.30
2018-09-20T04:42:40.807Z,14.40
2018-09-20T04:45:15.635Z,14.30
2018-09-20T04:47:50.024Z,14.30
2018-09-20T04:50:24.633Z,14.30
2018-09-20T04:52:59.331Z,14.30
2018-09-20T04:55:33.952Z,14.30
2018-09-20T04:58:08.989Z,14.40
2018-09-20T05:00:43.888Z,14.40
2018-09-20T05:03:19.398Z,14.50
2018-09-20T05:05:53.768Z,14.40
2018-09-20T05:08:28.737Z,14.50
2018-09-20T05:11:03.340Z,14.60
2018-09-20T05:13:38.941Z,14.60
2018-09-20T05:16:13.688Z,14.50
2018-09-20T05:18:48.772Z,14.50
2018-09-20T05:21:24.397Z,14.50
2018-09-20T05:23:59.515Z,14.50
2018-09-20T05:26:33.949Z,14.50
2018-09-20T05:29:09.176Z,14.50
2018-09-20T05:31:43.276Z,14.50
2018-09-20T05:34:17.926Z,14.50
2018-09-20T05:36:52.514Z,14.50
2018-09-20T05:39:27.228Z,14.60
2018-09-20T05:42:01.924Z,14.60
2018-09-20T05:44:36.998Z,14.60
2018-09-20T05:47:11.786Z,14.60
2018-09-20T05:49:46.561Z,14.70
2018-09-20T05:52:21.165Z,14.80
2018-09-20T05:54:56.212Z,14.80
2018-09-20T05:57:31.084Z,14.90
2018-09-20T06:00:06.818Z,15.00
2018-09-20T06:02:41.552Z,15.10
2018-09-20T06:05:16.297Z,15.20
2018-09-20T06:07:51.004Z,15.30
2018-09-20T06:10:26.084Z,15.40
2018-09-20T06:13:00.629Z,15.50
2018-09-20T06:15:35.336Z,15.60
2018-09-20T06:18:10.005Z,15.80
2018-09-20T06:20:44.804Z,16.00
2018-09-20T06:23:19.744Z,16.20
2018-09-20T06:25:54.595Z,16.50
2018-09-20T06:28:28.997Z,16.80
2018-09-20T06:31:03.754Z,17.00
2018-09-20T06:33:38.616Z,17.40
2018-09-20T06:36:13.616Z,17.60
2018-09-20T06:38:48.105Z,17.90
2018-09-20T06:41:23.008Z,18.10
2018-09-20T06:43:57.349Z,18.40
2018-09-20T06:46:31.506Z,18.60
2018-09-20T06:49:06.599Z,18.80
2018-09-20T06:51:40.793Z,19.00
2018-09-20T06:54:15.287Z,19.30
2018-09-20T06:56:50.052Z,19.40
2018-09-20T06:59:24.756Z,19.60
2018-09-20T07:01:59.645Z,19.70
2018-09-20T07:04:34.242Z,19.80
2018-09-20T07:07:08.900Z,20.00
2018-09-20T07:09:44.952Z,20.00
2018-09-20T07:12:19.607Z,20.10
2018-09-20T07:14:54.031Z,20.20
2018-09-20T07:17:28.373Z,20.40
2018-09-20T07:20:03.145Z,20.60
2018-09-20T07:22:37.830Z,20.70
2018-09-20T07:25:13.412Z,20.90
2018-09-20T07:27:48.257Z,21.10
2018-09-20T07:30:22.869Z,21.20
2018-09-20T07:32:57.587Z,21.40
2018-09-20T07:35:32.693Z,21.60
2018-09-20T07:38:07.053Z,21.80
2018-09-20T07:40:41.774Z,22.00
2018-09-20T07:43:16.200Z,22.10
2018-09-20T07:45:51.690Z,22.30
2018-09-20T07:48:26.598Z,22.40
2018-09-20T07:51:01.684Z,22.60
2018-09-20T07:53:38.118Z,22.80
2018-09-20T07:56:13.270Z,22.90
2018-09-20T07:58:48.935Z,23.00
2018-09-20T08:01:23.800Z,23.20
2018-09-20T08:03:58.577Z,23.40
2018-09-20T08:06:33.212Z,23.50
2018-09-20T08:09:10.239Z,23.70
2018-09-20T08:11:44.700Z,23.80
2018-09-20T08:14:19.364Z,23.90
2018-09-20T08:16:53.771Z,24.10
2018-09-20T08:19:28.900Z,24.20
2018-09-20T08:22:04.118Z,24.30
2018-09-20T08:24:38.613Z,24.40
2018-09-20T08:27:13.506Z,24.60
2018-09-20T08:29:48.057Z,24.70
2018-09-20T08:32:23.021Z,24.90
2018-09-20T08:34:57.277Z,25.00
2018-09-20T08:37:32.151Z,25.10
2018-09-20T08:40:06.640Z,25.20
2018-09-20T08:42:41.340Z,25.30
2018-09-20T08:45:15.980Z,25.40
2018-09-20T08:47:50.737Z,25.50
2018-09-20T08:50:25.579Z,25.60
2018-09-20T08:53:00.293Z,25.60
2018-09-20T08:55:34.893Z,25.80
2018-09-20T08:58:09.859Z,25.90
2018-09-20T09:00:44.835Z,26.00
2018-09-20T09:03:19.054Z,26.20
2018-09-20T09:05:53.748Z,26.30
2018-09-20T09:08:28.278Z,26.40
2018-09-20T09:11:03.579Z,26.60
2018-09-20T09:13:37.680Z,26.70
2018-09-20T09:16:12.629Z,26.90
2018-09-20T09:18:47.045Z,27.00
2018-09-20T09:21:21.853Z,27.10
2018-09-20T09:23:56.473Z,27.30
2018-09-20T09:26:31.192Z,27.40
2018-09-20T09:29:05.952Z,27.50
2018-09-20T09:31:40.651Z,27.70
2018-09-20T09:34:15.384Z,27.80
2018-09-20T09:36:50.179Z,27.90
2018-09-20T09:39:24.981Z,28.10
2018-09-20T09:41:59.567Z,28.30
2018-09-20T09:44:34.440Z,28.30
2018-09-20T09:47:09.194Z,28.50
2018-09-20T09:49:43.997Z,28.70
2018-09-20T09:52:19.043Z,28.90
2018-09-20T09:54:53.518Z,29.10
2018-09-20T09:57:28.112Z,29.10
2018-09-20T10:00:03.081Z,29.20
2018-09-20T10:02:37.797Z,29.20
2018-09-20T10:05:12.180Z,29.30
2018-09-20T10:07:47.417Z,29.30
2018-09-20T10:10:22.189Z,29.30
2018-09-20T10:12:56.498Z,29.40
2018-09-20T10:15:31.127Z,29.40
2018-09-20T10:18:06.036Z,29.40
2018-09-20T10:20:40.969Z,29.30
2018-09-20T10:23:15.669Z,29.20
2018-09-20T10:25:50.347Z,29.20
2018-09-20T10:28:25.417Z,29.20
2018-09-20T10:31:00.060Z,29.10
2018-09-20T10:33:34.799Z,29.00
2018-09-20T10:36:09.869Z,29.00
2018-09-20T10:38:44.218Z,29.00
2018-09-20T10:41:19.236Z,29.00
2018-09-20T10:43:53.869Z,28.80
2018-09-20T10:46:28.415Z,28.70
2018-09-20T10:49:03.176Z,28.50
2018-09-20T10:51:38.071Z,28.40
2018-09-20T10:54:12.678Z,28.30
2018-09-20T10:56:47.338Z,28.10
2018-09-20T10:59:21.970Z,28.10
2018-09-20T11:01:56.769Z,28.00
2018-09-20T11:04:31.587Z,27.90
2018-09-20T11:07:06.342Z,27.90
2018-09-20T11:09:41.041Z,27.80
2018-09-20T11:12:16.132Z,27.70
2018-09-20T11:14:50.812Z,27.50
2018-09-20T11:17:25.512Z,27.30
2018-09-20T11:20:00.272Z,27.20
2018-09-20T11:22:35.248Z,27.10
2018-09-20T11:25:09.921Z,27.00
2018-09-20T11:27:44.345Z,26.90
2018-09-20T11:30:19.175Z,26.90
2018-09-20T11:32:53.904Z,26.80
2018-09-20T11:35:28.748Z,26.80
2018-09-20T11:38:03.352Z,26.80
2018-09-20T11:40:37.972Z,26.80
2018-09-20T11:43:12.802Z,26.70
2018-09-20T11:45:47.653Z,26.70
2018-09-20T11:48:22.879Z,26.70
2018-09-20T11:50:57.804Z,26.70
2018-09-20T11:53:32.301Z,26.70
2018-09-20T11:56:07.092Z,26.70
2018-09-20T11:58:41.668Z,26.60
2018-09-20T12:01:16.413Z,26.60
2018-09-20T12:03:51.187Z,26.60
2018-09-20T12:06:25.828Z,26.50
2018-09-20T12:09:00.494Z,26.50
2018-09-20T12:11:35.068Z,26.50
2018-09-20T12:14:09.880Z,26.50
2018-09-20T12:16:44.549Z,26.50
2018-09-20T12:19:19.509Z,26.40
2018-09-20T12:21:54.205Z,26.40
2018-09-20T12:24:28.960Z,26.30
2018-09-20T12:27:03.648Z,26.30
2018-09-20T12:29:38.391Z,26.30
2018-09-20T12:32:12.599Z,26.30
2018-09-20T12:34:47.413Z,26.30
2018-09-20T12:37:27.812Z,26.30
2018-09-20T12:40:02.236Z,26.20
2018-09-20T12:42:36.796Z,26.20
2018-09-20T12:45:11.488Z,26.20
2018-09-20T12:47:45.907Z,26.20
2018-09-20T12:50:20.738Z,26.20
2018-09-20T12:52:55.304Z,26.20
2018-09-20T12:55:30.122Z,26.20
2018-09-20T12:58:04.998Z,26.20
2018-09-20T13:00:40.066Z,26.20
2018-09-20T13:03:14.533Z,26.20
2018-09-20T13:05:49.172Z,26.20
2018-09-20T13:08:23.845Z,26.10
2018-09-20T13:10:59.063Z,26.10
2018-09-20T13:13:33.421Z,26.10
2018-09-20T13:16:08.343Z,26.10
2018-09-20T13:18:42.937Z,26.00
2018-09-20T13:21:17.628Z,26.00
2018-09-20T13:23:52.236Z,26.00
2018-09-20T13:26:26.901Z,26.00
2018-09-20T13:29:01.589Z,26.00
2018-09-20T13:31:35.915Z,26.00
2018-09-20T13:34:10.344Z,26.00
2018-09-20T13:36:45.062Z,25.90
2018-09-20T13:39:20.420Z,25.90
2018-09-20T13:41:55.477Z,26.00
2018-09-20T13:44:30.276Z,25.90
2018-09-20T13:47:04.955Z,25.90
2018-09-20T13:49:39.693Z,25.90
2018-09-20T13:52:14.488Z,25.90
2018-09-20T13:54:49.234Z,25.90
2018-09-20T13:57:24.360Z,25.90
2018-09-20T13:59:58.755Z,25.90
2018-09-20T14:02:33.425Z,25.80
2018-09-20T14:05:08.174Z,25.80
2018-09-20T14:07:42.969Z,25.80
2018-09-20T14:10:17.617Z,25.80
2018-09-20T14:12:52.154Z,25.80
2018-09-20T14:15:26.901Z,25.80
2018-09-20T14:18:01.504Z,25.80
2018-09-20T14:20:36.129Z,25.80
2018-09-20T14:23:11.285Z,25.70
2018-09-20T14:25:45.684Z,25.70
2018-09-20T14:28:20.716Z,25.70
2018-09-20T14:30:55.281Z,25.70
2018-09-20T14:33:30.239Z,25.70
2018-09-20T14:36:04.682Z,25.80
2018-09-20T14:38:39.553Z,25.80
2018-09-20T14:41:14.057Z,25.80
2018-09-20T14:43:48.994Z,25.80
2018-09-20T14:46:23.277Z,25.80
2018-09-20T14:48:58.038Z,25.80
2018-09-20T14:51:32.721Z,25.80
2018-09-20T14:54:07.748Z,25.80
2018-09-20T14:56:49.391Z,25.80
2018-09-20T14:59:24.775Z,25.80
2018-09-20T15:01:59.153Z,25.80
2018-09-20T15:04:34.123Z,25.80
2018-09-20T15:07:08.873Z,25.70
2018-09-20T15:09:43.952Z,25.70
2018-09-20T15:12:18.336Z,25.70
2018-09-20T15:14:53.168Z,25.70
2018-09-20T15:17:27.670Z,25.60
2018-09-20T15:20:02.367Z,25.60
2018-09-20T15:22:36.848Z,25.50
2018-09-20T15:25:11.259Z,25.50
2018-09-20T15:27:46.305Z,25.50
2018-09-20T15:30:20.840Z,25.50
2018-09-20T15:32:55.500Z,25.50
2018-09-20T15:35:30.605Z,25.50
2018-09-20T15:38:05.218Z,25.50
2018-09-20T15:40:39.702Z,25.50
2018-09-20T15:43:14.458Z,25.40
2018-09-20T15:45:49.081Z,25.40
2018-09-20T15:48:24.136Z,25.40
2018-09-20T15:50:58.636Z,25.40
2018-09-20T15:53:33.357Z,25.30
2018-09-20T15:56:08.777Z,25.30
2018-09-20T15:58:43.734Z,25.30
2018-09-20T16:01:19.084Z,25.20
2018-09-20T16:03:54.123Z,25.20
2018-09-20T16:06:28.832Z,25.20
2018-09-20T16:09:06.673Z,25.20
2018-09-20T16:11:41.686Z,25.10
2018-09-20T16:14:16.492Z,25.10
2018-09-20T16:16:50.964Z,25.10
2018-09-20T16:19:25.698Z,25.00
2018-09-20T16:22:00.399Z,25.00
2018-09-20T16:24:35.179Z,25.00
2018-09-20T16:27:09.651Z,25.00
2018-09-20T16:30:04.665Z,24.90
2018-09-20T16:33:01.693Z,24.90
2018-09-20T16:35:49.023Z,24.80
2018-09-20T16:38:38.361Z,24.70
2018-09-20T16:41:18.070Z,24.60
2018-09-20T16:43:53.070Z,24.50
2018-09-20T16:46:27.565Z,24.50
2018-09-20T16:49:02.261Z,24.40
2018-09-20T16:51:37.089Z,24.30
2018-09-20T16:54:12.052Z,24.20
2018-09-20T16:56:46.593Z,24.10
2018-09-20T16:59:21.313Z,24.00
2018-09-20T17:01:56.137Z,23.90
2018-09-20T17:04:30.908Z,23.80
2018-09-20T17:07:05.407Z,23.70
2018-09-20T17:09:40.021Z,23.60
2018-09-20T17:12:14.568Z,23.40
2018-09-20T17:14:49.475Z,23.30
2018-09-20T17:17:24.152Z,23.10
2018-09-20T17:19:59.069Z,23.00
2018-09-20T17:22:34.201Z,22.80
2018-09-20T17:25:08.994Z,22.70
2018-09-20T17:27:43.872Z,22.60
2018-09-20T17:30:18.681Z,22.40
2018-09-20T17:32:53.704Z,22.30
2018-09-20T17:35:28.669Z,22.20
2018-09-20T17:38:04.644Z,22.10
2018-09-20T17:40:42.653Z,22.00
2018-09-20T17:43:20.910Z,21.80
2018-09-20T17:45:55.886Z,21.70
2018-09-20T17:48:30.520Z,21.60
2018-09-20T17:51:06.505Z,21.50
2018-09-20T17:53:41.974Z,21.40
2018-09-20T17:56:17.549Z,21.40
2018-09-20T17:58:52.700Z,21.30
2018-09-20T18:01:27.493Z,21.20
2018-09-20T18:04:02.306Z,21.20
2018-09-20T18:06:37.272Z,21.20
2018-09-20T18:09:12.089Z,21.20
2018-09-20T18:11:46.952Z,21.20
2018-09-20T18:14:21.710Z,21.20
2018-09-20T18:16:56.205Z,21.20
2018-09-20T18:19:31.093Z,21.10
2018-09-20T18:22:05.933Z,21.10
2018-09-20T18:24:40.641Z,21.10
2018-09-20T18:27:15.401Z,21.00
2018-09-20T18:29:50.138Z,21.00
2018-09-20T18:32:24.325Z,21.00
2018-09-20T18:34:59.295Z,21.00
2018-09-20T18:37:35.590Z,20.90
2018-09-20T18:40:09.836Z,20.90
2018-09-20T18:42:44.712Z,20.80
2018-09-20T18:45:19.205Z,20.80
2018-09-20T18:47:54.064Z,20.70
2018-09-20T18:50:28.887Z,20.60
2018-09-20T18:53:03.859Z,20.60
2018-09-20T18:55:38.257Z,20.50
2018-09-20T18:58:12.969Z,20.40
2018-09-20T19:00:48.625Z,20.30
2018-09-20T19:03:23.741Z,20.20
2018-09-20T19:05:58.493Z,20.20
2018-09-20T19:08:33.266Z,20.10
2018-09-20T19:11:07.295Z,20.00
2018-09-20T19:13:42.442Z,19.90
2018-09-20T19:16:16.875Z,19.80
2018-09-20T19:18:52.225Z,19.80
2018-09-20T19:21:26.616Z,19.70
2018-09-20T19:24:01.489Z,19.60
2018-09-20T19:26:35.914Z,19.60
2018-09-20T19:29:10.740Z,19.50
2018-09-20T19:31:46.305Z,19.40
2018-09-20T19:34:20.465Z,19.40
2018-09-20T19:36:55.584Z,19.20
2018-09-20T19:39:30.118Z,19.20
2018-09-20T19:42:05.156Z,19.10
2018-09-20T19:44:39.514Z,19.10
2018-09-20T19:47:51.094Z,19.00
2018-09-20T19:50:26.133Z,19.00
2018-09-20T19:53:01.452Z,19.00
2018-09-20T19:55:35.834Z,18.90
2018-09-20T19:58:10.181Z,18.80
2018-09-20T20:00:45.444Z,18.80
2018-09-20T20:03:20.616Z,18.70
2018-09-20T20:05:55.183Z,18.60
2018-09-20T20:08:29.682Z,18.60
2018-09-20T20:11:03.957Z,18.50
2018-09-20T20:13:38.501Z,18.50
2018-09-20T20:16:13.232Z,18.40
2018-09-20T20:18:47.492Z,18.40
2018-09-20T20:21:21.979Z,18.40
2018-09-20T20:23:56.689Z,18.30
2018-09-20T20:26:31.478Z,18.30
2018-09-20T20:29:06.129Z,18.20
2018-09-20T20:31:40.695Z,18.20
2018-09-20T20:34:15.114Z,18.10
2018-09-20T20:36:49.656Z,18.10
2018-09-20T20:39:24.248Z,18.10
2018-09-20T20:41:58.999Z,18.00
2018-09-20T20:44:33.484Z,17.90
2018-09-20T20:47:08.702Z,17.90
2018-09-20T20:49:43.593Z,17.90
2018-09-20T20:52:18.458Z,17.80
2018-09-20T20:54:52.733Z,17.80
2018-09-20T20:57:27.372Z,17.80
2018-09-20T21:00:01.908Z,17.70
2018-09-20T21:02:36.492Z,17.70
2018-09-20T21:05:11.581Z,17.60
2018-09-20T21:07:45.742Z,17.60
2018-09-20T21:10:20.594Z,17.60
2018-09-20T21:12:55.150Z,17.50
2018-09-20T21:15:29.589Z,17.50
2018-09-20T21:18:04.152Z,17.50
2018-09-20T21:20:38.825Z,17.40
2018-09-20T21:23:13.467Z,17.40
2018-09-20T21:25:47.985Z,17.30
2018-09-20T21:28:22.868Z,17.30
2018-09-20T21:30:57.273Z,17.30
2018-09-20T21:33:31.789Z,17.30
2018-09-20T21:36:06.437Z,17.20
2018-09-20T21:38:40.959Z,17.20
2018-09-20T21:41:15.696Z,17.20
2018-09-20T21:43:51.015Z,17.10
2018-09-20T21:46:25.424Z,17.10
2018-09-20T21:49:00.105Z,17.10
2018-09-20T21:51:34.829Z,17.10
2018-09-20T21:54:09.258Z,17.10
2018-09-20T21:56:43.781Z,17.00
2018-09-20T21:59:18.182Z,16.90
2018-09-20T22:02:02.318Z,16.90
2018-09-20T22:04:36.521Z,16.90
2018-09-20T22:07:11.054Z,16.80
2018-09-20T22:09:45.812Z,16.80
2018-09-20T22:12:20.302Z,16.80
2018-09-20T22:14:54.677Z,16.70
2018-09-20T22:17:30.077Z,16.70
2018-09-20T22:20:04.928Z,16.60
2018-09-20T22:22:40.650Z,16.60
2018-09-20T22:25:15.262Z,16.60
2018-09-20T22:27:49.894Z,16.60
2018-09-20T22:30:24.548Z,16.60
2018-09-20T22:32:58.934Z,16.50
2018-09-20T22:35:33.494Z,16.50
2018-09-20T22:38:07.950Z,16.50
2018-09-20T22:40:42.618Z,16.50
2018-09-20T22:43:17.021Z,16.50
2018-09-20T22:45:51.648Z,16.50
2018-09-20T22:48:26.736Z,16.40
2018-09-20T22:51:01.494Z,16.40
2018-09-20T22:53:36.069Z,16.40
2018-09-20T22:56:10.973Z,16.40
2018-09-20T22:58:45.315Z,16.40
2018-09-20T23:01:19.907Z,16.30
2018-09-20T23:03:54.456Z,16.30
2018-09-20T23:06:28.981Z,16.20
2018-09-20T23:09:05.869Z,16.30
2018-09-20T23:11:40.357Z,16.20
2018-09-20T23:14:14.621Z,16.20
2018-09-20T23:16:49.419Z,16.20
2018-09-20T23:19:23.854Z,16.10
2018-09-20T23:21:58.574Z,16.10
2018-09-20T23:24:32.817Z,16.10
2018-09-20T23:27:07.414Z,16.10
2018-09-20T23:29:41.857Z,16.00
2018-09-20T23:32:16.280Z,16.00
2018-09-20T23:34:50.848Z,15.90
2018-09-20T23:37:25.747Z,15.90
2018-09-20T23:40:00.377Z,15.90
2018-09-20T23:42:35.028Z,15.90
2018-09-20T23:45:09.789Z,15.80
2018-09-20T23:47:44.200Z,15.80
2018-09-20T23:50:18.936Z,15.80
2018-09-20T23:52:53.735Z,15.80
2018-09-20T23:55:28.813Z,15.70
2018-09-20T23:58:03.159Z,15.80
